sensor_id;sensor_type;location;lat;lon;timestamp;pressure;altitude;pressure_sealevel;temperature;humidity
58955;BME280;45815;52.334;5.024;2023-03-11T00:01:47;100714.94;;;2.56;100.00
58955;BME280;45815;52.334;5.024;2023-03-11T00:04:13;100716.69;;;2.57;100.00
58955;BME280;45815;52.334;5.024;2023-03-11T00:06:38;100705.09;;;2.49;100.00
58955;BME280;45815;52.334;5.024;2023-03-11T00:09:04;100718.28;;;2.53;100.00
58955;BME280;45815;52.334;5.024;2023-03-11T00:11:29;100719.91;;;2.51;100.00
58955;BME280;45815;52.334;5.024;2023-03-11T00:13:55;100715.91;;;2.58;100.00
58955;BME280;45815;52.334;5.024;2023-03-11T00:16:20;100722.84;;;2.59;100.00
58955;BME280;45815;52.334;5.024;2023-03-11T00:18:49;100729.84;;;2.60;100.00
58955;BME280;45815;52.334;5.024;2023-03-11T00:21:16;100724.66;;;2.60;100.00
58955;BME280;45815;52.334;5.024;2023-03-11T00:23:41;100736.63;;;2.58;100.00
58955;BME280;45815;52.334;5.024;2023-03-11T00:26:07;100739.06;;;2.55;100.00
58955;BME280;45815;52.334;5.024;2023-03-11T00:28:32;100743.81;;;2.46;100.00
58955;BME280;45815;52.334;5.024;2023-03-11T00:30:58;100739.09;;;2.39;100.00
58955;BME280;45815;52.334;5.024;2023-03-11T00:33:25;100742.59;;;2.39;100.00
58955;BME280;45815;52.334;5.024;2023-03-11T00:35:50;100741.88;;;2.42;100.00
58955;BME280;45815;52.334;5.024;2023-03-11T00:38:18;100755.47;;;2.38;100.00
58955;BME280;45815;52.334;5.024;2023-03-11T00:40:45;100755.88;;;2.29;100.00
58955;BME280;45815;52.334;5.024;2023-03-11T00:43:11;100756.63;;;2.26;100.00
58955;BME280;45815;52.334;5.024;2023-03-11T00:45:37;100766.91;;;2.25;100.00
58955;BME280;45815;52.334;5.024;2023-03-11T00:48:03;100760.09;;;2.27;100.00
58955;BME280;45815;52.334;5.024;2023-03-11T00:50:32;100774.00;;;2.29;100.00
58955;BME280;45815;52.334;5.024;2023-03-11T00:52:58;100778.47;;;2.31;100.00
58955;BME280;45815;52.334;5.024;2023-03-11T00:55:26;100772.25;;;2.28;100.00
58955;BME280;45815;52.334;5.024;2023-03-11T00:57:58;100778.31;;;2.28;100.00
58955;BME280;45815;52.334;5.024;2023-03-11T01:00:28;100781.03;;;2.31;100.00
58955;BME280;45815;52.334;5.024;2023-03-11T01:02:54;100774.94;;;2.29;100.00
58955;BME280;45815;52.334;5.024;2023-03-11T01:05:24;100791.16;;;2.27;100.00
58955;BME280;45815;52.334;5.024;2023-03-11T01:07:50;100788.53;;;2.25;100.00
58955;BME280;45815;52.334;5.024;2023-03-11T01:10:16;100786.56;;;2.21;100.00
58955;BME280;45815;52.334;5.024;2023-03-11T01:12:43;100796.59;;;2.15;100.00
58955;BME280;45815;52.334;5.024;2023-03-11T01:15:15;100791.03;;;2.07;100.00
58955;BME280;45815;52.334;5.024;2023-03-11T01:17:42;100793.53;;;2.06;100.00
58955;BME280;45815;52.334;5.024;2023-03-11T01:20:09;100788.84;;;1.99;100.00
58955;BME280;45815;52.334;5.024;2023-03-11T01:22:35;100795.47;;;1.94;100.00
58955;BME280;45815;52.334;5.024;2023-03-11T01:25:00;100796.84;;;1.87;100.00
58955;BME280;45815;52.334;5.024;2023-03-11T01:27:26;100801.25;;;1.88;100.00
58955;BME280;45815;52.334;5.024;2023-03-11T01:29:54;100806.31;;;1.86;100.00
58955;BME280;45815;52.334;5.024;2023-03-11T01:32:19;100801.97;;;1.85;100.00
58955;BME280;45815;52.334;5.024;2023-03-11T01:34:45;100808.19;;;1.89;100.00
58955;BME280;45815;52.334;5.024;2023-03-11T01:37:10;100809.88;;;1.88;100.00
58955;BME280;45815;52.334;5.024;2023-03-11T01:39:35;100812.47;;;1.88;100.00
58955;BME280;45815;52.334;5.024;2023-03-11T01:42:01;100814.97;;;1.87;100.00
58955;BME280;45815;52.334;5.024;2023-03-11T01:44:27;100815.88;;;1.87;100.00
58955;BME280;45815;52.334;5.024;2023-03-11T01:49:22;100802.03;;;1.71;100.00
58955;BME280;45815;52.334;5.024;2023-03-11T01:51:50;100807.03;;;1.67;100.00
58955;BME280;45815;52.334;5.024;2023-03-11T01:54:28;100807.59;;;1.62;100.00
58955;BME280;45815;52.334;5.024;2023-03-11T01:56:55;100818.03;;;1.63;100.00
58955;BME280;45815;52.334;5.024;2023-03-11T01:59:43;100819.22;;;1.54;100.00
58955;BME280;45815;52.334;5.024;2023-03-11T02:02:17;100825.28;;;1.54;100.00
58955;BME280;45815;52.334;5.024;2023-03-11T02:04:45;100792.69;;;1.41;100.00
58955;BME280;45815;52.334;5.024;2023-03-11T02:07:11;100813.41;;;1.58;100.00
58955;BME280;45815;52.334;5.024;2023-03-11T02:09:38;100822.44;;;1.50;100.00
58955;BME280;45815;52.334;5.024;2023-03-11T02:12:04;100818.19;;;1.50;100.00
58955;BME280;45815;52.334;5.024;2023-03-11T02:14:33;100820.56;;;1.47;100.00
58955;BME280;45815;52.334;5.024;2023-03-11T02:17:00;100820.16;;;1.39;100.00
58955;BME280;45815;52.334;5.024;2023-03-11T02:21:59;100816.44;;;1.34;100.00
58955;BME280;45815;52.334;5.024;2023-03-11T02:27:20;100832.66;;;1.32;100.00
58955;BME280;45815;52.334;5.024;2023-03-11T02:29:48;100836.75;;;1.28;100.00
58955;BME280;45815;52.334;5.024;2023-03-11T02:32:17;100820.94;;;1.22;100.00
58955;BME280;45815;52.334;5.024;2023-03-11T02:34:43;100834.00;;;1.25;100.00
58955;BME280;45815;52.334;5.024;2023-03-11T02:37:13;100822.78;;;1.24;100.00
58955;BME280;45815;52.334;5.024;2023-03-11T02:39:49;100802.31;;;1.13;100.00
58955;BME280;45815;52.334;5.024;2023-03-11T02:42:23;100814.31;;;1.27;100.00
58955;BME280;45815;52.334;5.024;2023-03-11T02:45:06;100808.63;;;1.18;100.00
58955;BME280;45815;52.334;5.024;2023-03-11T02:47:33;100821.63;;;1.19;100.00
58955;BME280;45815;52.334;5.024;2023-03-11T02:50:00;100820.47;;;1.14;100.00
58955;BME280;45815;52.334;5.024;2023-03-11T02:52:31;100825.56;;;1.13;100.00
58955;BME280;45815;52.334;5.024;2023-03-11T02:54:57;100826.47;;;1.13;100.00
58955;BME280;45815;52.334;5.024;2023-03-11T02:57:23;100834.13;;;1.12;100.00
58955;BME280;45815;52.334;5.024;2023-03-11T02:59:48;100830.56;;;1.10;100.00
58955;BME280;45815;52.334;5.024;2023-03-11T03:02:14;100825.06;;;1.03;100.00
58955;BME280;45815;52.334;5.024;2023-03-11T03:04:40;100840.56;;;1.03;100.00
58955;BME280;45815;52.334;5.024;2023-03-11T03:07:05;100837.88;;;1.02;100.00
58955;BME280;45815;52.334;5.024;2023-03-11T03:09:31;100844.59;;;0.98;100.00
58955;BME280;45815;52.334;5.024;2023-03-11T03:11:57;100826.47;;;0.83;100.00
58955;BME280;45815;52.334;5.024;2023-03-11T03:14:22;100843.41;;;0.93;100.00
58955;BME280;45815;52.334;5.024;2023-03-11T03:16:48;100839.94;;;0.93;100.00
58955;BME280;45815;52.334;5.024;2023-03-11T03:19:13;100855.34;;;0.91;100.00
58955;BME280;45815;52.334;5.024;2023-03-11T03:21:39;100859.72;;;0.92;100.00
58955;BME280;45815;52.334;5.024;2023-03-11T03:24:05;100862.41;;;0.94;100.00
58955;BME280;45815;52.334;5.024;2023-03-11T03:26:31;100866.59;;;0.92;100.00
58955;BME280;45815;52.334;5.024;2023-03-11T03:28:56;100849.47;;;0.79;100.00
58955;BME280;45815;52.334;5.024;2023-03-11T03:31:22;100860.16;;;0.85;100.00
58955;BME280;45815;52.334;5.024;2023-03-11T03:33:47;100870.06;;;0.92;100.00
58955;BME280;45815;52.334;5.024;2023-03-11T03:36:13;100878.88;;;0.96;100.00
58955;BME280;45815;52.334;5.024;2023-03-11T03:38:55;100877.97;;;0.95;100.00
58955;BME280;45815;52.334;5.024;2023-03-11T03:41:21;100884.94;;;0.96;100.00
58955;BME280;45815;52.334;5.024;2023-03-11T03:43:48;100881.00;;;0.88;100.00
58955;BME280;45815;52.334;5.024;2023-03-11T03:46:14;100882.88;;;0.91;100.00
58955;BME280;45815;52.334;5.024;2023-03-11T03:48:44;100896.88;;;0.94;100.00
58955;BME280;45815;52.334;5.024;2023-03-11T03:51:12;100904.03;;;0.98;100.00
58955;BME280;45815;52.334;5.024;2023-03-11T03:53:43;100907.22;;;0.94;100.00
58955;BME280;45815;52.334;5.024;2023-03-11T03:56:13;100909.19;;;0.98;100.00
58955;BME280;45815;52.334;5.024;2023-03-11T03:58:39;100909.19;;;0.98;100.00
58955;BME280;45815;52.334;5.024;2023-03-11T04:01:05;100918.81;;;1.01;100.00
58955;BME280;45815;52.334;5.024;2023-03-11T04:03:32;100915.25;;;0.99;100.00
58955;BME280;45815;52.334;5.024;2023-03-11T04:06:15;100915.03;;;0.81;100.00
58955;BME280;45815;52.334;5.024;2023-03-11T04:08:40;100916.75;;;0.95;100.00
58955;BME280;45815;52.334;5.024;2023-03-11T04:11:08;100916.84;;;0.97;100.00
58955;BME280;45815;52.334;5.024;2023-03-11T04:13:34;100916.84;;;0.97;100.00
58955;BME280;45815;52.334;5.024;2023-03-11T04:16:05;100918.53;;;0.96;100.00
58955;BME280;45815;52.334;5.024;2023-03-11T04:18:31;100915.16;;;0.97;100.00
58955;BME280;45815;52.334;5.024;2023-03-11T04:20:56;100910.78;;;0.96;100.00
58955;BME280;45815;52.334;5.024;2023-03-11T04:23:22;100915.41;;;1.02;100.00
58955;BME280;45815;52.334;5.024;2023-03-11T04:25:48;100914.69;;;1.04;100.00
58955;BME280;45815;52.334;5.024;2023-03-11T04:28:13;100921.66;;;1.05;100.00
58955;BME280;45815;52.334;5.024;2023-03-11T04:30:39;100910.69;;;0.95;100.00
58955;BME280;45815;52.334;5.024;2023-03-11T04:33:05;100922.53;;;0.91;100.00
58955;BME280;45815;52.334;5.024;2023-03-11T04:35:31;100908.72;;;0.76;100.00
58955;BME280;45815;52.334;5.024;2023-03-11T04:37:56;100926.91;;;0.77;100.00
58955;BME280;45815;52.334;5.024;2023-03-11T04:40:24;100938.56;;;0.71;100.00
58955;BME280;45815;52.334;5.024;2023-03-11T04:42:49;100926.06;;;0.63;100.00
58955;BME280;45815;52.334;5.024;2023-03-11T04:45:15;100933.81;;;0.63;100.00
58955;BME280;45815;52.334;5.024;2023-03-11T04:47:46;100935.91;;;0.56;100.00
58955;BME280;45815;52.334;5.024;2023-03-11T04:50:12;100936.34;;;0.49;100.00
58955;BME280;45815;52.334;5.024;2023-03-11T04:52:38;100939.47;;;0.43;100.00
58955;BME280;45815;52.334;5.024;2023-03-11T04:55:04;100939.06;;;0.37;100.00
58955;BME280;45815;52.334;5.024;2023-03-11T04:57:31;100941.47;;;0.34;100.00
58955;BME280;45815;52.334;5.024;2023-03-11T04:59:57;100949.81;;;0.30;100.00
58955;BME280;45815;52.334;5.024;2023-03-11T05:02:22;100946.06;;;0.25;100.00
58955;BME280;45815;52.334;5.024;2023-03-11T05:04:56;100939.63;;;0.18;100.00
58955;BME280;45815;52.334;5.024;2023-03-11T05:07:21;100920.72;;;0.04;100.00
58955;BME280;45815;52.334;5.024;2023-03-11T05:09:47;100941.03;;;0.13;100.00
58955;BME280;45815;52.334;5.024;2023-03-11T05:12:12;100945.09;;;0.09;100.00
58955;BME280;45815;52.334;5.024;2023-03-11T05:14:40;100949.19;;;0.06;100.00
58955;BME280;45815;52.334;5.024;2023-03-11T05:17:06;100955.66;;;-0.01;100.00
58955;BME280;45815;52.334;5.024;2023-03-11T05:19:32;100959.47;;;-0.09;100.00
58955;BME280;45815;52.334;5.024;2023-03-11T05:22:07;100958.88;;;-0.18;100.00
58955;BME280;45815;52.334;5.024;2023-03-11T05:24:33;100941.69;;;-0.31;100.00
58955;BME280;45815;52.334;5.024;2023-03-11T05:26:59;100962.75;;;-0.25;100.00
58955;BME280;45815;52.334;5.024;2023-03-11T05:29:24;100950.94;;;-0.35;100.00
58955;BME280;45815;52.334;5.024;2023-03-11T05:31:51;100966.09;;;-0.26;100.00
58955;BME280;45815;52.334;5.024;2023-03-11T05:34:17;100967.69;;;-0.28;100.00
58955;BME280;45815;52.334;5.024;2023-03-11T05:36:43;100966.72;;;-0.30;100.00
58955;BME280;45815;52.334;5.024;2023-03-11T05:39:09;100974.34;;;-0.32;100.00
58955;BME280;45815;52.334;5.024;2023-03-11T05:41:35;100971.66;;;-0.33;100.00
58955;BME280;45815;52.334;5.024;2023-03-11T05:44:01;100978.50;;;-0.34;100.00
58955;BME280;45815;52.334;5.024;2023-03-11T05:46:27;100974.84;;;-0.37;100.00
58955;BME280;45815;52.334;5.024;2023-03-11T05:48:53;100979.19;;;-0.36;100.00
58955;BME280;45815;52.334;5.024;2023-03-11T05:51:18;100988.63;;;-0.37;100.00
58955;BME280;45815;52.334;5.024;2023-03-11T05:53:46;100995.56;;;-0.36;100.00
58955;BME280;45815;52.334;5.024;2023-03-11T05:56:19;100991.97;;;-0.38;100.00
58955;BME280;45815;52.334;5.024;2023-03-11T05:58:46;100991.00;;;-0.40;100.00
58955;BME280;45815;52.334;5.024;2023-03-11T06:01:14;100996.66;;;-0.32;100.00
58955;BME280;45815;52.334;5.024;2023-03-11T06:03:41;101009.25;;;-0.24;100.00
58955;BME280;45815;52.334;5.024;2023-03-11T06:06:09;101014.50;;;-0.22;100.00
58955;BME280;45815;52.334;5.024;2023-03-11T06:08:35;101003.31;;;-0.23;100.00
58955;BME280;45815;52.334;5.024;2023-03-11T06:11:09;101006.28;;;-0.30;100.00
58955;BME280;45815;52.334;5.024;2023-03-11T06:13:36;101001.13;;;-0.30;100.00
58955;BME280;45815;52.334;5.024;2023-03-11T06:16:03;101006.19;;;-0.31;100.00
58955;BME280;45815;52.334;5.024;2023-03-11T06:18:29;101009.34;;;-0.35;100.00
58955;BME280;45815;52.334;5.024;2023-03-11T06:20:57;101010.66;;;-0.42;100.00
58955;BME280;45815;52.334;5.024;2023-03-11T06:23:23;101015.41;;;-0.48;100.00
58955;BME280;45815;52.334;5.024;2023-03-11T06:26:04;101013.59;;;-0.62;100.00
58955;BME280;45815;52.334;5.024;2023-03-11T06:28:35;101021.31;;;-0.62;100.00
58955;BME280;45815;52.334;5.024;2023-03-11T06:31:12;101012.16;;;-0.71;100.00
58955;BME280;45815;52.334;5.024;2023-03-11T06:33:39;101007.50;;;-0.76;100.00
58955;BME280;45815;52.334;5.024;2023-03-11T06:36:05;101026.88;;;-0.70;100.00
58955;BME280;45815;52.334;5.024;2023-03-11T06:38:32;101022.59;;;-0.69;100.00
58955;BME280;45815;52.334;5.024;2023-03-11T06:40:59;101026.38;;;-0.64;100.00
58955;BME280;45815;52.334;5.024;2023-03-11T06:43:25;101030.06;;;-0.60;100.00
58955;BME280;45815;52.334;5.024;2023-03-11T06:45:51;101027.97;;;-0.53;100.00
58955;BME280;45815;52.334;5.024;2023-03-11T06:48:16;101029.28;;;-0.46;100.00
58955;BME280;45815;52.334;5.024;2023-03-11T06:50:42;101025.31;;;-0.41;100.00
58955;BME280;45815;52.334;5.024;2023-03-11T06:53:08;101032.78;;;-0.32;100.00
58955;BME280;45815;52.334;5.024;2023-03-11T06:55:34;101037.63;;;-0.24;100.00
58955;BME280;45815;52.334;5.024;2023-03-11T06:58:01;101046.75;;;-0.15;100.00
58955;BME280;45815;52.334;5.024;2023-03-11T07:00:27;101045.19;;;-0.13;100.00
58955;BME280;45815;52.334;5.024;2023-03-11T07:02:56;101059.75;;;-0.01;100.00
58955;BME280;45815;52.334;5.024;2023-03-11T07:05:22;101068.97;;;0.09;100.00
58955;BME280;45815;52.334;5.024;2023-03-11T07:07:53;101055.50;;;0.13;100.00
58955;BME280;45815;52.334;5.024;2023-03-11T07:10:20;101059.06;;;0.15;100.00
58955;BME280;45815;52.334;5.024;2023-03-11T07:12:45;101074.97;;;0.22;100.00
58955;BME280;45815;52.334;5.024;2023-03-11T07:15:11;101071.69;;;0.24;100.00
58955;BME280;45815;52.334;5.024;2023-03-11T07:17:38;101077.91;;;0.28;100.00
58955;BME280;45815;52.334;5.024;2023-03-11T07:20:04;101073.75;;;0.30;100.00
58955;BME280;45815;52.334;5.024;2023-03-11T07:22:29;101079.13;;;0.33;100.00
58955;BME280;45815;52.334;5.024;2023-03-11T07:24:55;101087.84;;;0.35;100.00
58955;BME280;45815;52.334;5.024;2023-03-11T07:27:20;101084.66;;;0.39;100.00
58955;BME280;45815;52.334;5.024;2023-03-11T07:29:46;101081.47;;;0.43;100.00
58955;BME280;45815;52.334;5.024;2023-03-11T07:32:12;101085.34;;;0.50;100.00
58955;BME280;45815;52.334;5.024;2023-03-11T07:34:37;101085.81;;;0.57;100.00
58955;BME280;45815;52.334;5.024;2023-03-11T07:37:03;101087.22;;;0.66;100.00
58955;BME280;45815;52.334;5.024;2023-03-11T07:39:28;101084.28;;;0.74;100.00
58955;BME280;45815;52.334;5.024;2023-03-11T07:41:53;101082.28;;;0.83;100.00
58955;BME280;45815;52.334;5.024;2023-03-11T07:44:19;101077.41;;;0.88;100.00
58955;BME280;45815;52.334;5.024;2023-03-11T07:46:45;101076.25;;;0.98;100.00
58955;BME280;45815;52.334;5.024;2023-03-11T07:49:11;101085.69;;;1.11;100.00
58955;BME280;45815;52.334;5.024;2023-03-11T07:51:38;101072.78;;;1.25;100.00
58955;BME280;45815;52.334;5.024;2023-03-11T07:54:06;101078.22;;;1.45;100.00
58955;BME280;45815;52.334;5.024;2023-03-11T07:56:33;101087.47;;;1.55;100.00
58955;BME280;45815;52.334;5.024;2023-03-11T07:59:00;101093.78;;;1.60;100.00
58955;BME280;45815;52.334;5.024;2023-03-11T08:01:28;101092.53;;;1.68;100.00
58955;BME280;45815;52.334;5.024;2023-03-11T08:04:00;101102.44;;;1.75;100.00
58955;BME280;45815;52.334;5.024;2023-03-11T08:06:28;101098.63;;;1.83;100.00
58955;BME280;45815;52.334;5.024;2023-03-11T08:08:58;101097.34;;;1.92;100.00
58955;BME280;45815;52.334;5.024;2023-03-11T08:11:23;101103.31;;;2.05;100.00
58955;BME280;45815;52.334;5.024;2023-03-11T08:13:49;101110.00;;;2.17;100.00
58955;BME280;45815;52.334;5.024;2023-03-11T08:16:18;101109.66;;;2.25;100.00
58955;BME280;45815;52.334;5.024;2023-03-11T08:18:48;101111.22;;;2.38;100.00
58955;BME280;45815;52.334;5.024;2023-03-11T08:21:19;101108.69;;;2.54;100.00
58955;BME280;45815;52.334;5.024;2023-03-11T08:23:44;101115.59;;;2.70;100.00
58955;BME280;45815;52.334;5.024;2023-03-11T08:26:12;101118.13;;;2.85;100.00
58955;BME280;45815;52.334;5.024;2023-03-11T08:28:39;101101.78;;;2.86;100.00
58955;BME280;45815;52.334;5.024;2023-03-11T08:31:22;101117.44;;;3.04;100.00
58955;BME280;45815;52.334;5.024;2023-03-11T08:33:57;101104.16;;;3.14;100.00
58955;BME280;45815;52.334;5.024;2023-03-11T08:36:23;101113.06;;;3.36;100.00
58955;BME280;45815;52.334;5.024;2023-03-11T08:38:48;101119.06;;;3.51;100.00
58955;BME280;45815;52.334;5.024;2023-03-11T08:41:14;101122.75;;;3.73;100.00
58955;BME280;45815;52.334;5.024;2023-03-11T08:43:40;101125.25;;;3.88;100.00
58955;BME280;45815;52.334;5.024;2023-03-11T08:46:06;101128.22;;;3.95;100.00
58955;BME280;45815;52.334;5.024;2023-03-11T08:48:32;101143.59;;;4.09;100.00
58955;BME280;45815;52.334;5.024;2023-03-11T08:50:58;101136.13;;;4.15;100.00
58955;BME280;45815;52.334;5.024;2023-03-11T08:53:23;101123.88;;;4.12;100.00
58955;BME280;45815;52.334;5.024;2023-03-11T08:55:50;101144.09;;;4.36;100.00
58955;BME280;45815;52.334;5.024;2023-03-11T08:58:16;101144.69;;;4.48;100.00
58955;BME280;45815;52.334;5.024;2023-03-11T09:00:41;101157.28;;;4.58;100.00
58955;BME280;45815;52.334;5.024;2023-03-11T09:03:07;101160.84;;;4.60;100.00
58955;BME280;45815;52.334;5.024;2023-03-11T09:05:32;101153.28;;;4.65;100.00
58955;BME280;45815;52.334;5.024;2023-03-11T09:07:58;101156.97;;;4.88;100.00
58955;BME280;45815;52.334;5.024;2023-03-11T09:10:23;101151.88;;;5.09;100.00
58955;BME280;45815;52.334;5.024;2023-03-11T09:12:48;101159.44;;;5.22;100.00
58955;BME280;45815;52.334;5.024;2023-03-11T09:15:14;101158.34;;;5.37;100.00
58955;BME280;45815;52.334;5.024;2023-03-11T09:17:39;101152.84;;;5.50;100.00
58955;BME280;45815;52.334;5.024;2023-03-11T09:20:05;101156.09;;;5.44;100.00
58955;BME280;45815;52.334;5.024;2023-03-11T09:22:31;101163.66;;;5.59;100.00
58955;BME280;45815;52.334;5.024;2023-03-11T09:24:56;101144.09;;;5.67;100.00
58955;BME280;45815;52.334;5.024;2023-03-11T09:27:22;101154.91;;;5.77;100.00
58955;BME280;45815;52.334;5.024;2023-03-11T09:29:47;101159.00;;;5.91;100.00
58955;BME280;45815;52.334;5.024;2023-03-11T09:32:13;101162.91;;;6.22;100.00
58955;BME280;45815;52.334;5.024;2023-03-11T09:34:40;101155.19;;;6.44;100.00
58955;BME280;45815;52.334;5.024;2023-03-11T09:37:05;101160.19;;;6.61;100.00
58955;BME280;45815;52.334;5.024;2023-03-11T09:39:31;101159.22;;;6.81;100.00
58955;BME280;45815;52.334;5.024;2023-03-11T09:42:01;101160.19;;;6.83;100.00
58955;BME280;45815;52.334;5.024;2023-03-11T09:44:53;101171.13;;;6.95;100.00
58955;BME280;45815;52.334;5.024;2023-03-11T09:50:27;101159.84;;;7.19;100.00
58955;BME280;45815;52.334;5.024;2023-03-11T09:53:25;101151.34;;;7.49;100.00
58955;BME280;45815;52.334;5.024;2023-03-11T09:56:00;101144.47;;;7.51;100.00
58955;BME280;45815;52.334;5.024;2023-03-11T09:58:46;101149.22;;;7.14;100.00
58955;BME280;45815;52.334;5.024;2023-03-11T10:03:44;101148.22;;;7.35;100.00
58955;BME280;45815;52.334;5.024;2023-03-11T10:06:15;101152.56;;;7.34;100.00
58955;BME280;45815;52.334;5.024;2023-03-11T10:11:18;101156.38;;;7.43;100.00
58955;BME280;45815;52.334;5.024;2023-03-11T10:14:38;101155.34;;;7.39;100.00
58955;BME280;45815;52.334;5.024;2023-03-11T10:22:09;101163.25;;;7.40;100.00
58955;BME280;45815;52.334;5.024;2023-03-11T10:25:08;101139.66;;;7.37;100.00
58955;BME280;45815;52.334;5.024;2023-03-11T10:28:04;101162.03;;;7.55;100.00
58955;BME280;45815;52.334;5.024;2023-03-11T10:33:20;101157.19;;;7.42;100.00
58955;BME280;45815;52.334;5.024;2023-03-11T10:35:52;101157.47;;;7.49;100.00
58955;BME280;45815;52.334;5.024;2023-03-11T10:38:22;101148.81;;;7.50;100.00
58955;BME280;45815;52.334;5.024;2023-03-11T10:40:57;101151.50;;;7.53;100.00
58955;BME280;45815;52.334;5.024;2023-03-11T10:43:51;101154.13;;;7.53;100.00
58955;BME280;45815;52.334;5.024;2023-03-11T10:46:28;101149.59;;;7.48;100.00
58955;BME280;45815;52.334;5.024;2023-03-11T10:48:54;101147.84;;;7.72;100.00
58955;BME280;45815;52.334;5.024;2023-03-11T10:51:21;101150.94;;;7.86;100.00
58955;BME280;45815;52.334;5.024;2023-03-11T10:53:54;101155.06;;;8.05;100.00
58955;BME280;45815;52.334;5.024;2023-03-11T10:58:54;101165.28;;;8.23;100.00
58955;BME280;45815;52.334;5.024;2023-03-11T11:01:20;101163.91;;;8.34;100.00
58955;BME280;45815;52.334;5.024;2023-03-11T11:03:52;101168.69;;;8.46;100.00
58955;BME280;45815;52.334;5.024;2023-03-11T11:06:31;101164.34;;;8.74;100.00
58955;BME280;45815;52.334;5.024;2023-03-11T11:09:21;101168.28;;;8.88;100.00
58955;BME280;45815;52.334;5.024;2023-03-11T11:14:48;101169.03;;;8.84;90.77
58955;BME280;45815;52.334;5.024;2023-03-11T11:17:32;101171.13;;;8.67;90.57
58955;BME280;45815;52.334;5.024;2023-03-11T11:20:00;101172.50;;;9.12;98.53
58955;BME280;45815;52.334;5.024;2023-03-11T11:22:37;101161.44;;;9.50;97.66
58955;BME280;45815;52.334;5.024;2023-03-11T11:25:23;101163.72;;;9.70;98.35
58955;BME280;45815;52.334;5.024;2023-03-11T11:27:55;101167.53;;;9.81;96.96
58955;BME280;45815;52.334;5.024;2023-03-11T11:30:20;101169.28;;;9.82;95.13
58955;BME280;45815;52.334;5.024;2023-03-11T11:32:46;101159.91;;;9.59;91.43
58955;BME280;45815;52.334;5.024;2023-03-11T11:35:16;101174.41;;;9.78;92.35
58955;BME280;45815;52.334;5.024;2023-03-11T11:37:53;101168.59;;;9.89;90.36
58955;BME280;45815;52.334;5.024;2023-03-11T11:40:32;101172.03;;;10.20;89.31
58955;BME280;45815;52.334;5.024;2023-03-11T11:43:02;101157.09;;;10.51;88.11
58955;BME280;45815;52.334;5.024;2023-03-11T11:45:34;101168.81;;;10.65;86.58
58955;BME280;45815;52.334;5.024;2023-03-11T11:48:20;101163.22;;;10.88;83.25
58955;BME280;45815;52.334;5.024;2023-03-11T11:50:58;101161.78;;;11.43;82.12
58955;BME280;45815;52.334;5.024;2023-03-11T11:53:41;101157.75;;;11.60;76.73
58955;BME280;45815;52.334;5.024;2023-03-11T11:56:08;101157.84;;;12.09;83.61
58955;BME280;45815;52.334;5.024;2023-03-11T11:58:34;101168.03;;;12.42;79.71
58955;BME280;45815;52.334;5.024;2023-03-11T12:06:30;101142.44;;;12.88;68.31
58955;BME280;45815;52.334;5.024;2023-03-11T12:17:11;101139.19;;;13.77;67.44
58955;BME280;45815;52.334;5.024;2023-03-11T12:19:41;101138.09;;;13.59;64.74
58955;BME280;45815;52.334;5.024;2023-03-11T12:25:04;101140.31;;;14.02;56.24
58955;BME280;45815;52.334;5.024;2023-03-11T12:27:48;101130.81;;;14.19;58.64
58955;BME280;45815;52.334;5.024;2023-03-11T12:30:19;101144.41;;;14.64;63.96
58955;BME280;45815;52.334;5.024;2023-03-11T12:32:50;101143.59;;;14.77;59.46
58955;BME280;45815;52.334;5.024;2023-03-11T12:35:22;101144.50;;;14.84;57.16
58955;BME280;45815;52.334;5.024;2023-03-11T12:38:14;101144.16;;;14.39;53.42
58955;BME280;45815;52.334;5.024;2023-03-11T12:46:05;101145.28;;;14.64;52.02
58955;BME280;45815;52.334;5.024;2023-03-11T12:48:36;101139.88;;;14.53;55.38
58955;BME280;45815;52.334;5.024;2023-03-11T12:51:06;101140.84;;;14.59;55.03
58955;BME280;45815;52.334;5.024;2023-03-11T12:53:52;101144.66;;;15.07;54.09
58955;BME280;45815;52.334;5.024;2023-03-11T12:56:43;101137.75;;;15.35;51.19
58955;BME280;45815;52.334;5.024;2023-03-11T13:02:03;101135.22;;;15.64;49.38
58955;BME280;45815;52.334;5.024;2023-03-11T13:07:48;101142.09;;;15.17;47.11
58955;BME280;45815;52.334;5.024;2023-03-11T13:12:46;101141.94;;;14.94;46.98
58955;BME280;45815;52.334;5.024;2023-03-11T13:25:56;101128.88;;;15.25;43.86
58955;BME280;45815;52.334;5.024;2023-03-11T13:31:26;101131.34;;;14.90;45.35
58955;BME280;45815;52.334;5.024;2023-03-11T13:41:54;101142.91;;;13.97;52.21
58955;BME280;45815;52.334;5.024;2023-03-11T13:44:37;101133.84;;;13.02;47.11
58955;BME280;45815;52.334;5.024;2023-03-11T13:47:14;101140.75;;;12.94;45.72
58955;BME280;45815;52.334;5.024;2023-03-11T13:52:15;101149.53;;;12.94;45.48
58955;BME280;45815;52.334;5.024;2023-03-11T13:54:47;101148.56;;;12.31;44.36
58955;BME280;45815;52.334;5.024;2023-03-11T13:57:24;101157.88;;;12.11;46.56
58955;BME280;45815;52.334;5.024;2023-03-11T13:59:52;101155.91;;;11.99;51.06
58955;BME280;45815;52.334;5.024;2023-03-11T14:02:22;101162.34;;;11.71;52.95
58955;BME280;45815;52.334;5.024;2023-03-11T14:04:50;101162.81;;;11.09;55.36
58955;BME280;45815;52.334;5.024;2023-03-11T14:07:28;101156.19;;;10.49;54.81
58955;BME280;45815;52.334;5.024;2023-03-11T14:12:38;101167.16;;;10.34;60.15
58955;BME280;45815;52.334;5.024;2023-03-11T14:15:06;101164.72;;;10.08;59.07
58955;BME280;45815;52.334;5.024;2023-03-11T14:17:32;101166.16;;;9.96;63.64
58955;BME280;45815;52.334;5.024;2023-03-11T14:20:14;101164.91;;;9.81;61.99
58955;BME280;45815;52.334;5.024;2023-03-11T14:22:44;101171.13;;;9.55;63.24
58955;BME280;45815;52.334;5.024;2023-03-11T14:25:24;101169.50;;;9.28;64.31
58955;BME280;45815;52.334;5.024;2023-03-11T14:27:53;101174.97;;;9.07;61.91